createdAt,value
2023-03-03T00:00:15.216Z,96.04
2023-03-03T00:01:15.197Z,96.15
2023-03-03T00:02:15.251Z,96.15
2023-03-03T00:03:15.228Z,96.25
2023-03-03T00:04:15.140Z,96.25
2023-03-03T00:05:15.118Z,96.36
2023-03-03T00:06:15.105Z,96.36
2023-03-03T00:07:15.097Z,96.25
2023-03-03T00:08:15.129Z,96.25
2023-03-03T00:09:15.072Z,96.25
2023-03-03T00:10:15.050Z,96.15
2023-03-03T00:11:15.056Z,96.25
2023-03-03T00:12:15.029Z,96.25
2023-03-03T00:13:15.047Z,96.36
2023-03-03T00:14:15.010Z,96.46
2023-03-03T00:15:15.031Z,96.46
2023-03-03T00:16:15.078Z,96.46
2023-03-03T00:17:14.986Z,96.46
2023-03-03T00:18:14.998Z,96.50
2023-03-03T00:19:14.980Z,96.67
2023-03-03T00:20:14.981Z,96.77
2023-03-03T00:21:14.940Z,96.77
2023-03-03T00:22:14.926Z,96.77
2023-03-03T00:23:14.947Z,96.67
2023-03-03T00:24:14.956Z,96.67
2023-03-03T00:25:14.910Z,96.56
2023-03-03T00:26:14.878Z,96.56
2023-03-03T00:27:14.891Z,96.46
2023-03-03T00:28:14.884Z,96.36
2023-03-03T00:29:14.857Z,96.36
2023-03-03T00:30:14.853Z,96.25
2023-03-03T00:31:14.933Z,96.15
2023-03-03T00:32:14.865Z,96.15
2023-03-03T00:33:14.838Z,96.04
2023-03-03T00:34:14.794Z,96.04
2023-03-03T00:35:14.783Z,95.89
2023-03-03T00:36:14.830Z,96.04
2023-03-03T00:37:14.767Z,96.00
2023-03-03T00:38:14.800Z,95.89
2023-03-03T00:39:14.750Z,95.89
2023-03-03T00:40:14.759Z,95.89
2023-03-03T00:41:14.735Z,95.89
2023-03-03T00:42:14.709Z,95.89
2023-03-03T00:43:14.749Z,95.79
2023-03-03T00:44:14.682Z,95.79
2023-03-03T00:45:14.684Z,95.79
2023-03-03T00:46:14.711Z,95.79
2023-03-03T00:47:14.656Z,95.68
2023-03-03T00:48:14.681Z,95.68
2023-03-03T00:49:14.633Z,95.58
2023-03-03T00:50:14.618Z,95.58
2023-03-03T00:51:14.644Z,95.48
2023-03-03T00:52:14.596Z,95.37
2023-03-03T00:53:14.664Z,95.27
2023-03-03T00:54:14.582Z,95.17
2023-03-03T00:55:14.569Z,95.06
2023-03-03T00:56:14.553Z,95.21
2023-03-03T00:57:14.559Z,95.17
2023-03-03T00:58:14.554Z,95.17
2023-03-03T00:59:14.539Z,95.06
2023-03-03T01:00:14.515Z,95.17
2023-03-03T01:01:14.532Z,95.17
2023-03-03T01:02:14.524Z,95.17
2023-03-03T01:03:14.529Z,95.21
2023-03-03T01:04:14.461Z,95.21
2023-03-03T01:05:14.472Z,95.10
2023-03-03T01:06:14.444Z,95.31
2023-03-03T01:07:14.438Z,95.42
2023-03-03T01:08:14.446Z,95.42
2023-03-03T01:09:14.417Z,95.31
2023-03-03T01:10:14.392Z,95.31
2023-03-03T01:11:14.385Z,95.21
2023-03-03T01:12:14.391Z,95.21
2023-03-03T01:13:14.393Z,95.21
2023-03-03T01:14:14.387Z,95.31
2023-03-03T01:15:14.343Z,95.27
2023-03-03T01:16:14.413Z,95.31
2023-03-03T01:17:14.321Z,95.27
2023-03-03T01:18:14.362Z,95.27
2023-03-03T01:19:14.301Z,95.06
2023-03-03T01:20:14.298Z,95.06
2023-03-03T01:21:14.284Z,95.06
2023-03-03T01:22:14.267Z,95.06
2023-03-03T01:23:14.279Z,94.96
2023-03-03T01:24:14.236Z,94.96
2023-03-03T01:25:14.246Z,94.96
2023-03-03T01:26:14.236Z,95.06
2023-03-03T01:27:14.224Z,95.06
2023-03-03T01:28:14.256Z,95.06
2023-03-03T01:29:14.192Z,95.06
2023-03-03T01:30:14.189Z,95.06
2023-03-03T01:31:14.217Z,94.85
2023-03-03T01:32:14.189Z,94.85
2023-03-03T01:33:14.176Z,94.85
2023-03-03T01:34:14.128Z,94.75
2023-03-03T01:35:14.125Z,94.64
2023-03-03T01:36:14.108Z,94.64
2023-03-03T01:37:14.095Z,94.75
2023-03-03T01:38:14.112Z,94.64
2023-03-03T01:39:14.097Z,94.75
2023-03-03T01:40:14.064Z,94.75
2023-03-03T01:41:14.050Z,94.85
2023-03-03T01:42:14.046Z,94.75
2023-03-03T01:43:14.075Z,94.64
2023-03-03T01:44:14.030Z,94.75
2023-03-03T01:45:14.076Z,94.64
2023-03-03T01:46:14.018Z,94.75
2023-03-03T01:47:13.989Z,94.75
2023-03-03T01:48:13.997Z,94.85
2023-03-03T01:49:14.001Z,94.85
2023-03-03T01:50:13.951Z,95.06
2023-03-03T01:51:13.936Z,95.06
2023-03-03T01:52:13.923Z,94.96
2023-03-03T01:53:13.940Z,94.96
2023-03-03T01:54:13.896Z,95.06
2023-03-03T01:55:13.907Z,95.17
2023-03-03T01:56:13.880Z,94.96
2023-03-03T01:57:13.876Z,94.96
2023-03-03T01:58:13.905Z,94.96
2023-03-03T01:59:13.857Z,94.85
2023-03-03T02:00:13.841Z,94.85
2023-03-03T02:01:13.830Z,94.85
2023-03-03T02:02:13.819Z,94.85
2023-03-03T02:03:13.830Z,94.85
2023-03-03T02:04:13.826Z,94.85
2023-03-03T02:05:13.785Z,94.85
2023-03-03T02:06:13.784Z,94.75
2023-03-03T02:07:13.786Z,94.64
2023-03-03T02:08:13.772Z,94.54
2023-03-03T02:09:13.744Z,94.54
2023-03-03T02:10:13.736Z,94.54
2023-03-03T02:11:13.714Z,94.43
2023-03-03T02:12:13.740Z,94.43
2023-03-03T02:13:13.722Z,94.43
2023-03-03T02:14:13.704Z,94.43
2023-03-03T02:15:13.682Z,94.33
2023-03-03T02:16:13.719Z,94.37
2023-03-03T02:17:13.655Z,94.37
2023-03-03T02:18:13.678Z,94.37
2023-03-03T02:19:13.693Z,94.48
2023-03-03T02:20:13.620Z,94.69
2023-03-03T02:21:13.621Z,94.69
2023-03-03T02:22:13.605Z,94.58
2023-03-03T02:23:13.637Z,94.48
2023-03-03T02:24:13.574Z,94.48
2023-03-03T02:25:13.574Z,94.48
2023-03-03T02:26:13.560Z,94.58
2023-03-03T02:27:13.552Z,94.58
2023-03-03T02:28:13.550Z,94.58
2023-03-03T02:29:13.531Z,94.69
2023-03-03T02:30:13.510Z,94.69
2023-03-03T02:31:13.703Z,94.69
2023-03-03T02:32:13.517Z,94.69
2023-03-03T02:33:13.508Z,94.69
2023-03-03T02:34:13.478Z,94.69
2023-03-03T02:35:13.462Z,94.69
2023-03-03T02:36:13.441Z,94.58
2023-03-03T02:37:13.466Z,94.43
2023-03-03T02:38:13.419Z,94.43
2023-03-03T02:39:13.446Z,94.43
2023-03-03T02:40:13.405Z,94.33
2023-03-03T02:41:13.404Z,94.43
2023-03-03T02:42:13.373Z,94.43
2023-03-03T02:43:13.384Z,94.43
2023-03-03T02:44:13.380Z,94.54
2023-03-03T02:45:13.354Z,94.54
2023-03-03T02:46:13.334Z,94.64
2023-03-03T02:47:13.322Z,94.54
2023-03-03T02:48:13.307Z,94.43
2023-03-03T02:49:13.319Z,94.33
2023-03-03T02:50:13.305Z,94.43
2023-03-03T02:51:13.274Z,94.43
2023-03-03T02:52:13.254Z,94.23
2023-03-03T02:53:13.256Z,94.43
2023-03-03T02:54:13.309Z,94.33
2023-03-03T02:55:13.245Z,94.33
2023-03-03T02:56:13.219Z,94.33
2023-03-03T02:57:13.209Z,94.33
2023-03-03T02:58:13.187Z,94.33
2023-03-03T02:59:13.210Z,94.23
2023-03-03T03:00:13.167Z,94.23
2023-03-03T03:01:13.216Z,94.33
2023-03-03T03:02:13.142Z,94.43
2023-03-03T03:03:13.137Z,94.54
2023-03-03T03:04:13.193Z,94.54
2023-03-03T03:05:13.121Z,94.54
2023-03-03T03:06:13.107Z,94.58
2023-03-03T03:07:13.107Z,94.69
2023-03-03T03:08:13.098Z,94.79
2023-03-03T03:09:13.122Z,94.79
2023-03-03T03:10:13.073Z,94.90
2023-03-03T03:11:13.050Z,95.00
2023-03-03T03:12:13.054Z,95.00
2023-03-03T03:13:13.025Z,95.00
2023-03-03T03:14:13.033Z,95.10
2023-03-03T03:15:13.013Z,95.10
2023-03-03T03:16:13.027Z,95.10
2023-03-03T03:17:12.977Z,95.21
2023-03-03T03:18:13.008Z,95.10
2023-03-03T03:19:12.982Z,95.10
2023-03-03T03:20:12.961Z,95.00
2023-03-03T03:21:12.947Z,95.00
2023-03-03T03:22:12.969Z,95.00
2023-03-03T03:23:12.913Z,95.00
2023-03-03T03:24:12.926Z,94.90
2023-03-03T03:25:12.895Z,95.00
2023-03-03T03:26:12.880Z,95.00
2023-03-03T03:27:12.907Z,95.00
2023-03-03T03:28:12.856Z,95.00
2023-03-03T03:29:12.905Z,95.00
2023-03-03T03:30:12.832Z,95.10
2023-03-03T03:31:12.889Z,95.00
2023-03-03T03:32:12.927Z,95.00
2023-03-03T03:33:12.819Z,95.00
2023-03-03T03:34:12.808Z,95.00
2023-03-03T03:35:12.780Z,95.10
2023-03-03T03:36:12.768Z,95.10
2023-03-03T03:37:12.758Z,95.00
2023-03-03T03:38:12.749Z,95.00
2023-03-03T03:39:12.759Z,95.10
2023-03-03T03:40:12.725Z,95.10
2023-03-03T03:41:12.713Z,95.00
2023-03-03T03:42:12.702Z,95.00
2023-03-03T03:43:12.687Z,94.90
2023-03-03T03:44:12.718Z,94.90
2023-03-03T03:45:12.695Z,94.79
2023-03-03T03:46:12.721Z,94.90
2023-03-03T03:47:12.633Z,94.90
2023-03-03T03:48:12.677Z,94.90
2023-03-03T03:49:12.649Z,94.90
2023-03-03T03:50:12.606Z,94.79
2023-03-03T03:51:12.614Z,94.79
2023-03-03T03:52:12.593Z,94.69
2023-03-03T03:53:12.577Z,94.48
2023-03-03T03:54:12.622Z,94.48
2023-03-03T03:55:12.556Z,94.37
2023-03-03T03:56:12.540Z,94.27
2023-03-03T03:57:12.533Z,94.27
2023-03-03T03:58:12.554Z,94.27
2023-03-03T03:59:12.533Z,94.37
2023-03-03T04:00:12.512Z,94.37
2023-03-03T04:01:12.483Z,94.52
2023-03-03T04:02:12.562Z,94.63
2023-03-03T04:03:12.572Z,94.73
2023-03-03T04:04:12.479Z,94.73
2023-03-03T04:05:12.449Z,94.73
2023-03-03T04:06:12.432Z,94.73
2023-03-03T04:07:12.420Z,94.73
2023-03-03T04:08:12.412Z,94.73
2023-03-03T04:09:12.441Z,94.63
2023-03-03T04:10:12.391Z,94.73
2023-03-03T04:11:12.373Z,94.73
2023-03-03T04:12:12.374Z,94.73
2023-03-03T04:13:12.352Z,94.84
2023-03-03T04:14:12.385Z,94.84
2023-03-03T04:15:12.342Z,94.84
2023-03-03T04:16:12.411Z,94.84
2023-03-03T04:17:12.314Z,94.84
2023-03-03T04:18:12.305Z,94.94
2023-03-03T04:19:12.327Z,94.94
2023-03-03T04:20:12.278Z,94.94
2023-03-03T04:21:12.268Z,94.94
2023-03-03T04:22:12.260Z,94.94
2023-03-03T04:23:12.273Z,94.94
2023-03-03T04:24:12.264Z,95.04
2023-03-03T04:25:12.224Z,95.04
2023-03-03T04:26:12.209Z,95.15
2023-03-03T04:27:12.205Z,95.15
2023-03-03T04:28:12.195Z,95.15
2023-03-03T04:29:12.216Z,95.25
2023-03-03T04:30:12.189Z,95.36
2023-03-03T04:31:12.219Z,95.56
2023-03-03T04:32:12.162Z,95.67
2023-03-03T04:33:12.162Z,95.67
2023-03-03T04:34:12.145Z,95.78
2023-03-03T04:35:12.125Z,95.78
2023-03-03T04:36:12.111Z,95.78
2023-03-03T04:37:12.109Z,95.78
2023-03-03T04:38:12.079Z,95.88
2023-03-03T04:39:12.095Z,95.98
2023-03-03T04:40:12.058Z,95.88
2023-03-03T04:41:12.064Z,95.88
2023-03-03T04:42:12.033Z,95.88
2023-03-03T04:43:12.062Z,95.92
2023-03-03T04:44:12.034Z,96.03
2023-03-03T04:45:12.017Z,96.13
2023-03-03T04:46:12.028Z,96.03
2023-03-03T04:47:11.988Z,96.13
2023-03-03T04:48:11.971Z,96.34
2023-03-03T04:49:12.620Z,96.34
2023-03-03T04:50:11.942Z,96.34
2023-03-03T04:51:11.941Z,96.44
2023-03-03T04:52:11.919Z,96.55
2023-03-03T04:53:11.916Z,96.66
2023-03-03T04:54:11.943Z,96.76
2023-03-03T04:55:11.897Z,96.86
2023-03-03T04:56:11.910Z,96.86
2023-03-03T04:57:11.882Z,96.76
2023-03-03T04:58:11.866Z,96.97
2023-03-03T04:59:11.877Z,96.97
2023-03-03T05:00:11.857Z,96.97
2023-03-03T05:01:11.869Z,96.97
2023-03-03T05:02:11.811Z,96.97
2023-03-03T05:03:11.821Z,96.97
2023-03-03T05:04:11.809Z,97.07
2023-03-03T05:05:11.786Z,97.07
2023-03-03T05:06:11.765Z,97.07
2023-03-03T05:07:11.761Z,97.07
2023-03-03T05:08:11.734Z,97.07
2023-03-03T05:09:11.759Z,97.07
2023-03-03T05:10:11.757Z,97.07
2023-03-03T05:11:11.706Z,97.07
2023-03-03T05:12:11.693Z,97.07
2023-03-03T05:13:11.689Z,97.07
2023-03-03T05:14:11.699Z,96.97
2023-03-03T05:15:11.689Z,96.97
2023-03-03T05:16:11.677Z,96.92
2023-03-03T05:17:11.638Z,96.82
2023-03-03T05:18:11.631Z,96.86
2023-03-03T05:19:11.699Z,96.86
2023-03-03T05:20:11.612Z,96.76
2023-03-03T05:21:11.595Z,96.76
2023-03-03T05:22:11.585Z,96.66
2023-03-03T05:23:11.575Z,96.66
2023-03-03T05:24:11.585Z,96.55
2023-03-03T05:25:11.583Z,96.34
2023-03-03T05:26:11.550Z,96.44
2023-03-03T05:27:11.536Z,96.44
2023-03-03T05:28:11.525Z,96.44
2023-03-03T05:29:11.563Z,96.44
2023-03-03T05:30:11.492Z,96.44
2023-03-03T05:31:11.554Z,96.44
2023-03-03T05:32:11.527Z,96.49
2023-03-03T05:33:11.498Z,96.59
2023-03-03T05:34:11.473Z,96.66
2023-03-03T05:35:11.442Z,96.66
2023-03-03T05:36:11.424Z,96.55
2023-03-03T05:37:11.424Z,96.49
2023-03-03T05:38:11.406Z,96.59
2023-03-03T05:39:11.429Z,96.59
2023-03-03T05:40:11.391Z,96.70
2023-03-03T05:41:11.376Z,96.70
2023-03-03T05:42:11.360Z,96.70
2023-03-03T05:43:11.357Z,96.59
2023-03-03T05:44:11.381Z,96.74
2023-03-03T05:45:11.328Z,96.74
2023-03-03T05:46:11.352Z,96.80
2023-03-03T05:47:11.317Z,96.91
2023-03-03T05:48:11.298Z,96.80
2023-03-03T05:49:11.305Z,96.80
2023-03-03T05:50:11.274Z,96.70
2023-03-03T05:51:11.261Z,96.80
2023-03-03T05:52:11.251Z,96.70
2023-03-03T05:53:11.261Z,96.70
2023-03-03T05:54:11.282Z,96.70
2023-03-03T05:55:11.218Z,96.59
2023-03-03T05:56:11.202Z,96.59
2023-03-03T05:57:11.264Z,96.59
2023-03-03T05:58:11.255Z,96.59
2023-03-03T05:59:11.191Z,96.59
2023-03-03T06:00:11.161Z,96.59
2023-03-03T06:01:11.148Z,96.59
2023-03-03T06:02:11.201Z,96.59
2023-03-03T06:03:11.129Z,96.49
2023-03-03T06:04:11.140Z,96.38
2023-03-03T06:05:11.113Z,96.38
2023-03-03T06:06:11.093Z,96.28
2023-03-03T06:07:11.088Z,96.28
2023-03-03T06:08:11.077Z,96.28
2023-03-03T06:09:11.088Z,96.28
2023-03-03T06:10:11.071Z,96.17
2023-03-03T06:11:11.040Z,96.17
2023-03-03T06:12:11.036Z,96.23
2023-03-03T06:13:11.024Z,96.13
2023-03-03T06:14:11.041Z,96.03
2023-03-03T06:15:11.009Z,96.07
2023-03-03T06:16:11.048Z,96.07
2023-03-03T06:17:10.986Z,96.07
2023-03-03T06:18:10.958Z,96.17
2023-03-03T06:19:10.982Z,96.28
2023-03-03T06:20:10.937Z,96.28
2023-03-03T06:21:10.930Z,96.23
2023-03-03T06:22:10.953Z,96.23
2023-03-03T06:23:10.928Z,96.38
2023-03-03T06:24:10.919Z,96.49
2023-03-03T06:25:10.926Z,96.59
2023-03-03T06:26:10.874Z,96.55
2023-03-03T06:27:10.892Z,96.59
2023-03-03T06:28:10.850Z,96.55
2023-03-03T06:29:10.866Z,96.55
2023-03-03T06:30:10.832Z,96.55
2023-03-03T06:31:10.832Z,96.55
2023-03-03T06:32:10.927Z,96.55
2023-03-03T06:33:10.802Z,96.55
2023-03-03T06:34:10.803Z,96.55
2023-03-03T06:35:10.802Z,96.55
2023-03-03T06:36:10.770Z,96.55
2023-03-03T06:37:10.759Z,96.70
2023-03-03T06:38:10.742Z,96.91
2023-03-03T06:39:10.766Z,96.97
2023-03-03T06:40:10.777Z,96.97
2023-03-03T06:41:10.713Z,96.97
2023-03-03T06:42:10.699Z,96.86
2023-03-03T06:43:10.689Z,96.86
2023-03-03T06:44:10.696Z,96.86
2023-03-03T06:45:10.664Z,97.07
2023-03-03T06:46:10.783Z,96.97
2023-03-03T06:47:10.644Z,96.97
2023-03-03T06:48:10.635Z,96.97
2023-03-03T06:49:10.646Z,96.97
2023-03-03T06:50:10.604Z,96.97
2023-03-03T06:51:10.613Z,97.07
2023-03-03T06:52:10.579Z,97.07
2023-03-03T06:53:10.572Z,97.07
2023-03-03T06:54:10.578Z,97.07
2023-03-03T06:55:10.552Z,97.07
2023-03-03T06:56:10.545Z,96.97
2023-03-03T06:57:10.528Z,96.86
2023-03-03T06:58:10.547Z,96.92
2023-03-03T06:59:10.523Z,96.82
2023-03-03T07:00:10.501Z,96.82
2023-03-03T07:01:10.508Z,96.82
2023-03-03T07:02:10.475Z,96.82
2023-03-03T07:03:10.464Z,96.71
2023-03-03T07:04:10.509Z,96.71
2023-03-03T07:05:10.494Z,96.71
2023-03-03T07:06:10.430Z,96.61
2023-03-03T07:07:10.431Z,96.50
2023-03-03T07:08:10.414Z,96.50
2023-03-03T07:09:10.452Z,96.30
2023-03-03T07:10:10.392Z,96.30
2023-03-03T07:11:10.387Z,96.19
2023-03-03T07:12:10.380Z,96.19
2023-03-03T07:13:10.358Z,96.19
2023-03-03T07:14:10.369Z,96.09
2023-03-03T07:15:10.344Z,96.09
2023-03-03T07:16:10.396Z,95.98
2023-03-03T07:17:10.320Z,95.94
2023-03-03T07:18:10.312Z,95.83
2023-03-03T07:19:10.366Z,95.73
2023-03-03T07:20:10.293Z,95.67
2023-03-03T07:21:10.307Z,95.78
2023-03-03T07:22:10.319Z,95.88
2023-03-03T07:23:10.264Z,95.78
2023-03-03T07:24:10.262Z,95.78
2023-03-03T07:25:10.265Z,95.78
2023-03-03T07:26:10.215Z,95.78
2023-03-03T07:27:10.213Z,95.78
2023-03-03T07:28:10.239Z,95.78
2023-03-03T07:29:10.248Z,95.78
2023-03-03T07:30:10.193Z,95.78
2023-03-03T07:31:10.257Z,95.78
2023-03-03T07:32:10.171Z,95.67
2023-03-03T07:33:10.172Z,95.67
2023-03-03T07:34:10.149Z,95.56
2023-03-03T07:35:10.128Z,95.46
2023-03-03T07:36:10.120Z,95.56
2023-03-03T07:37:10.100Z,95.46
2023-03-03T07:38:10.101Z,95.36
2023-03-03T07:39:10.149Z,95.15
2023-03-03T07:40:10.057Z,94.94
2023-03-03T07:41:10.059Z,94.94
2023-03-03T07:42:10.060Z,94.94
2023-03-03T07:43:10.094Z,94.94
2023-03-03T07:44:10.043Z,94.94
2023-03-03T07:45:10.077Z,94.94
2023-03-03T07:46:10.098Z,94.90
2023-03-03T07:47:10.000Z,94.90
2023-03-03T07:48:10.002Z,94.79
2023-03-03T07:49:09.989Z,94.69
2023-03-03T07:50:09.953Z,94.48
2023-03-03T07:51:09.964Z,94.37
2023-03-03T07:52:09.964Z,94.27
2023-03-03T07:53:09.922Z,94.27
2023-03-03T07:54:09.936Z,94.27
2023-03-03T07:55:09.900Z,94.17
2023-03-03T07:56:09.896Z,94.17
2023-03-03T07:57:09.889Z,94.06
2023-03-03T07:58:09.865Z,93.96
2023-03-03T07:59:09.895Z,93.96
2023-03-03T08:00:09.840Z,93.96
2023-03-03T08:01:09.834Z,93.85
2023-03-03T08:02:09.839Z,93.75
2023-03-03T08:03:09.818Z,93.65
2023-03-03T08:04:10.017Z,93.54
2023-03-03T08:05:09.944Z,93.75
2023-03-03T08:06:09.782Z,93.75
2023-03-03T08:07:09.769Z,93.54
2023-03-03T08:08:09.766Z,93.65
2023-03-03T08:09:09.772Z,93.54
2023-03-03T08:10:09.776Z,93.54
2023-03-03T08:11:09.738Z,93.65
2023-03-03T08:12:09.771Z,93.54
2023-03-03T08:13:09.694Z,93.54
2023-03-03T08:14:09.702Z,93.60
2023-03-03T08:15:09.684Z,93.40
2023-03-03T08:16:09.748Z,93.29
2023-03-03T08:17:09.653Z,93.40
2023-03-03T08:18:09.649Z,93.40
2023-03-03T08:19:09.646Z,93.40
2023-03-03T08:20:09.615Z,93.40
2023-03-03T08:21:09.593Z,93.50
2023-03-03T08:22:09.584Z,93.50
2023-03-03T08:23:09.593Z,93.40
2023-03-03T08:24:09.579Z,93.29
2023-03-03T08:25:09.549Z,93.40
2023-03-03T08:26:09.529Z,93.40
2023-03-03T08:27:09.553Z,93.40
2023-03-03T08:28:09.510Z,93.40
2023-03-03T08:29:09.545Z,93.12
2023-03-03T08:30:09.489Z,93.23
2023-03-03T08:31:22.281Z,93.18
2023-03-03T08:32:09.569Z,93.18
2023-03-03T08:33:09.462Z,93.18
2023-03-03T08:34:09.490Z,93.18
2023-03-03T08:35:09.434Z,93.08
2023-03-03T08:36:09.425Z,93.08
2023-03-03T08:37:09.411Z,92.87
2023-03-03T08:38:09.438Z,92.77
2023-03-03T08:39:09.431Z,92.46
2023-03-03T08:40:09.377Z,92.46
2023-03-03T08:41:09.360Z,92.35
2023-03-03T08:42:09.397Z,92.35
2023-03-03T08:43:09.353Z,92.35
2023-03-03T08:44:09.414Z,92.21
2023-03-03T08:45:09.333Z,92.21
2023-03-03T08:46:09.332Z,92.10
2023-03-03T08:47:09.320Z,92.00
2023-03-03T08:48:09.291Z,91.89
2023-03-03T08:49:09.313Z,91.68
2023-03-03T08:50:09.286Z,91.68
2023-03-03T08:51:09.284Z,91.78
2023-03-03T08:52:09.247Z,91.47
2023-03-03T08:53:09.239Z,91.47
2023-03-03T08:54:09.249Z,91.22
2023-03-03T08:55:09.221Z,91.02
2023-03-03T08:56:09.202Z,91.02
2023-03-03T08:57:09.188Z,90.70
2023-03-03T08:58:09.200Z,90.60
2023-03-03T08:59:09.197Z,90.39
2023-03-03T09:00:09.187Z,90.29
2023-03-03T09:01:09.141Z,90.19
2023-03-03T09:02:09.278Z,90.19
2023-03-03T09:03:09.122Z,90.29
2023-03-03T09:04:09.215Z,90.29
2023-03-03T09:05:09.091Z,90.29
2023-03-03T09:06:09.106Z,90.29
2023-03-03T09:07:09.092Z,90.60
2023-03-03T09:08:09.092Z,90.77
2023-03-03T09:09:09.071Z,90.77
2023-03-03T09:10:09.046Z,90.77
2023-03-03T09:11:09.031Z,90.62
2023-03-03T09:12:09.037Z,90.20
2023-03-03T09:13:09.509Z,89.79
2023-03-03T09:14:09.039Z,89.27
2023-03-03T09:15:08.980Z,89.17
2023-03-03T09:16:09.021Z,89.17
2023-03-03T09:17:08.992Z,89.17
2023-03-03T09:18:09.009Z,89.12
2023-03-03T09:19:08.956Z,89.23
2023-03-03T09:20:08.937Z,89.12
2023-03-03T09:21:08.924Z,89.12
2023-03-03T09:22:08.917Z,89.02
2023-03-03T09:23:08.897Z,88.98
2023-03-03T09:24:08.936Z,88.35
2023-03-03T09:25:08.867Z,87.77
2023-03-03T09:26:08.860Z,87.77
2023-03-03T09:27:08.879Z,87.77
2023-03-03T09:28:08.848Z,87.88
2023-03-03T09:29:08.843Z,87.77
2023-03-03T09:30:08.826Z,87.46
2023-03-03T09:31:08.862Z,86.98
2023-03-03T09:32:08.902Z,87.40
2023-03-03T09:33:08.779Z,87.71
2023-03-03T09:34:08.819Z,87.77
2023-03-03T09:35:08.756Z,87.77
2023-03-03T09:36:08.758Z,87.88
2023-03-03T09:37:11.503Z,87.88
2023-03-03T09:38:08.778Z,87.94
2023-03-03T09:39:08.754Z,87.35
2023-03-03T09:40:08.706Z,87.46
2023-03-03T09:41:08.690Z,87.52
2023-03-03T09:42:08.684Z,87.42
2023-03-03T09:43:08.692Z,87.21
2023-03-03T09:44:08.685Z,87.42
2023-03-03T09:45:08.673Z,87.59
2023-03-03T09:46:08.638Z,87.59
2023-03-03T09:47:08.620Z,87.03
2023-03-03T09:48:08.653Z,86.09
2023-03-03T09:49:08.650Z,85.88
2023-03-03T09:50:08.611Z,86.09
2023-03-03T09:51:08.576Z,85.99
2023-03-03T09:52:08.573Z,85.36
2023-03-03T09:53:08.560Z,85.33
2023-03-03T09:54:08.569Z,85.64
2023-03-03T09:55:08.535Z,85.74
2023-03-03T09:56:08.528Z,85.12
2023-03-03T09:57:08.544Z,84.88
2023-03-03T09:58:11.145Z,84.98
2023-03-03T09:59:08.530Z,84.25
2023-03-03T10:00:08.479Z,84.05
2023-03-03T10:01:08.503Z,83.94
2023-03-03T10:02:08.465Z,83.84
2023-03-03T10:03:08.470Z,83.63
2023-03-03T10:04:08.516Z,83.42
2023-03-03T10:05:08.424Z,83.94
2023-03-03T10:06:08.417Z,83.94
2023-03-03T10:07:08.401Z,83.94
2023-03-03T10:08:08.412Z,83.94
2023-03-03T10:09:08.402Z,83.73
2023-03-03T10:10:08.373Z,83.32
2023-03-03T10:11:08.373Z,83.32
2023-03-03T10:12:08.341Z,82.94
2023-03-03T10:13:08.347Z,83.36
2023-03-03T10:14:08.454Z,83.67
2023-03-03T10:15:08.319Z,83.98
2023-03-03T10:16:08.354Z,84.60
2023-03-03T10:17:08.285Z,84.77
2023-03-03T10:18:08.289Z,84.77
2023-03-03T10:19:08.289Z,84.56
2023-03-03T10:20:08.284Z,83.94
2023-03-03T10:21:08.242Z,84.25
2023-03-03T10:22:08.243Z,84.36
2023-03-03T10:23:08.238Z,83.63
2023-03-03T10:24:08.229Z,84.08
2023-03-03T10:25:08.213Z,84.46
2023-03-03T10:26:08.200Z,84.67
2023-03-03T10:27:14.730Z,84.25
2023-03-03T10:28:08.189Z,84.05
2023-03-03T10:29:08.165Z,84.11
2023-03-03T10:30:08.148Z,83.80
2023-03-03T10:31:12.116Z,83.63
2023-03-03T10:32:08.242Z,83.22
2023-03-03T10:33:08.298Z,83.36
2023-03-03T10:34:08.115Z,83.67
2023-03-03T10:35:08.080Z,84.39
2023-03-03T10:36:08.124Z,84.77
2023-03-03T10:37:08.058Z,84.56
2023-03-03T10:38:08.054Z,84.25
2023-03-03T10:39:08.070Z,84.42
2023-03-03T10:40:08.035Z,83.90
2023-03-03T10:41:08.013Z,83.28
2023-03-03T10:42:08.029Z,83.28
2023-03-03T10:43:07.995Z,83.69
2023-03-03T10:44:08.033Z,83.48
2023-03-03T10:45:07.993Z,83.32
2023-03-03T10:46:07.985Z,83.94
2023-03-03T10:47:07.945Z,84.36
2023-03-03T10:48:07.941Z,84.63
2023-03-03T10:49:07.955Z,84.94
2023-03-03T10:50:07.915Z,84.90
2023-03-03T10:51:07.906Z,84.69
2023-03-03T10:52:07.892Z,84.23
2023-03-03T10:53:07.900Z,83.72
2023-03-03T10:54:07.907Z,82.79
2023-03-03T10:55:07.860Z,82.89
2023-03-03T10:56:07.852Z,82.89
2023-03-03T10:57:07.849Z,82.68
2023-03-03T10:58:07.830Z,82.34
2023-03-03T10:59:07.827Z,82.13
2023-03-03T11:00:07.806Z,81.85
2023-03-03T11:01:07.893Z,81.54
2023-03-03T11:02:07.781Z,81.51
2023-03-03T11:03:07.768Z,81.40
2023-03-03T11:04:07.812Z,81.61
2023-03-03T11:05:07.760Z,81.82
2023-03-03T11:06:07.765Z,81.51
2023-03-03T11:07:07.734Z,81.20
2023-03-03T11:08:07.710Z,80.88
2023-03-03T11:09:07.771Z,80.57
2023-03-03T11:10:07.730Z,80.61
2023-03-03T11:11:07.680Z,81.13
2023-03-03T11:12:07.665Z,81.40
2023-03-03T11:13:07.653Z,81.20
2023-03-03T11:14:07.672Z,80.99
2023-03-03T11:15:07.633Z,81.51
2023-03-03T11:16:07.623Z,81.65
2023-03-03T11:17:07.618Z,81.75
2023-03-03T11:18:07.603Z,81.96
2023-03-03T11:19:07.607Z,81.65
2023-03-03T11:20:07.583Z,81.82
2023-03-03T11:21:07.568Z,81.92
2023-03-03T11:22:07.580Z,81.30
2023-03-03T11:23:07.539Z,81.20
2023-03-03T11:24:07.553Z,81.40
2023-03-03T11:25:07.527Z,81.40
2023-03-03T11:26:07.549Z,81.16
2023-03-03T11:27:07.493Z,82.10
2023-03-03T11:28:07.494Z,82.82
2023-03-03T11:29:07.526Z,83.41
2023-03-03T11:30:07.482Z,83.10
2023-03-03T11:31:07.473Z,82.82
2023-03-03T11:32:07.488Z,83.20
2023-03-03T11:33:07.435Z,83.20
2023-03-03T11:34:07.458Z,82.89
2023-03-03T11:35:07.402Z,81.79
2023-03-03T11:36:07.399Z,82.24
2023-03-03T11:37:07.381Z,83.14
2023-03-03T11:38:07.422Z,83.97
2023-03-03T11:39:07.384Z,84.34
2023-03-03T11:40:07.351Z,83.89
2023-03-03T11:41:07.336Z,83.58
2023-03-03T11:42:07.336Z,82.95
2023-03-03T11:43:07.313Z,82.81
2023-03-03T11:44:07.329Z,82.40
2023-03-03T11:45:07.290Z,82.29
2023-03-03T11:46:07.345Z,81.99
2023-03-03T11:47:07.273Z,81.30
2023-03-03T11:48:07.268Z,81.05
2023-03-03T11:49:07.269Z,81.71
2023-03-03T11:50:07.277Z,82.09
2023-03-03T11:51:07.221Z,82.29
2023-03-03T11:52:07.231Z,82.19
2023-03-03T11:53:07.210Z,82.36
2023-03-03T11:54:07.222Z,81.74
2023-03-03T11:55:07.187Z,81.84
2023-03-03T11:56:07.171Z,81.05
2023-03-03T11:57:07.157Z,81.37
2023-03-03T11:58:07.170Z,81.88
2023-03-03T11:59:07.155Z,81.78
2023-03-03T12:00:07.127Z,81.99
2023-03-03T12:01:07.136Z,82.15
2023-03-03T12:02:07.130Z,81.54
2023-03-03T12:03:07.090Z,80.91
2023-03-03T12:04:07.104Z,81.33
2023-03-03T12:05:07.076Z,81.74
2023-03-03T12:06:07.157Z,81.12
2023-03-03T12:07:18.566Z,81.12
2023-03-03T12:08:07.040Z,81.64
2023-03-03T12:09:07.048Z,81.81
2023-03-03T12:10:07.022Z,80.98
2023-03-03T12:11:07.001Z,80.74
2023-03-03T12:12:07.001Z,80.01
2023-03-03T12:13:06.969Z,80.01
2023-03-03T12:14:06.989Z,80.49
2023-03-03T12:15:06.949Z,79.36
2023-03-03T12:16:06.995Z,79.46
2023-03-03T12:17:06.935Z,79.25
2023-03-03T12:18:06.920Z,79.63
2023-03-03T12:19:06.970Z,79.63
2023-03-03T12:20:06.926Z,79.08
2023-03-03T12:21:06.907Z,78.35
2023-03-03T12:22:06.902Z,78.35
2023-03-03T12:23:07.536Z,78.45
2023-03-03T12:24:06.914Z,78.31
2023-03-03T12:25:06.917Z,77.70
2023-03-03T12:26:06.907Z,76.67
2023-03-03T12:27:06.898Z,76.39
2023-03-03T12:28:06.841Z,76.81
2023-03-03T12:29:06.873Z,76.43
2023-03-03T12:30:06.803Z,77.56
2023-03-03T12:31:06.915Z,77.91
2023-03-03T12:32:06.811Z,78.46
2023-03-03T12:33:06.830Z,78.56
2023-03-03T12:34:06.794Z,79.39
2023-03-03T12:35:06.767Z,79.29
2023-03-03T12:36:06.739Z,79.19
2023-03-03T12:37:06.750Z,79.77
2023-03-03T12:38:06.716Z,79.97
2023-03-03T12:39:06.739Z,79.66
2023-03-03T12:40:06.705Z,78.94
2023-03-03T12:41:06.687Z,79.05
2023-03-03T12:42:06.685Z,78.77
2023-03-03T12:43:06.690Z,79.02
2023-03-03T12:44:06.684Z,79.94
2023-03-03T12:45:06.644Z,80.15
2023-03-03T12:46:06.667Z,80.46
2023-03-03T12:47:06.686Z,80.32
2023-03-03T12:48:06.613Z,79.74
2023-03-03T12:49:06.614Z,80.36
2023-03-03T12:50:07.763Z,80.36
2023-03-03T12:51:06.580Z,79.74
2023-03-03T12:52:06.582Z,80.15